Time;durP1;ratioP1;P1;durP2;ratioP2;P2;SDS_P1;SDS_P2;PMS_P1;PMS_P2;Temp;Humidity;BMP_temperature;BMP_pressure;BME280_temperature;BME280_humidity;BME280_pressure;Samples;Min_cycle;Max_cycle;Signal;HPM_P1;HPM_P2
2023/08/07 00:00:35;;;;;;;11.47;2.40;;;13.80;99.90;;;;;;7283022;19;20796;-78
2023/08/07 00:03:00;;;;;;;10.07;2.80;;;13.80;99.90;;;;;;7303927;19;20668;-78
2023/08/07 00:05:26;;;;;;;11.77;3.00;;;13.80;99.90;;;;;;7281513;19;20552;-78
2023/08/07 00:07:52;;;;;;;11.60;2.70;;;13.70;99.90;;;;;;7286157;19;21325;-78
2023/08/07 00:10:18;;;;;;;10.43;2.53;;;13.70;99.90;;;;;;7290587;19;20188;-78
2023/08/07 00:12:44;;;;;;;11.27;2.80;;;13.70;99.90;;;;;;7289843;19;20855;-77
2023/08/07 00:15:11;;;;;;;12.80;2.90;;;13.70;99.90;;;;;;7290109;19;20654;-77
2023/08/07 00:17:37;;;;;;;16.47;3.10;;;13.80;99.90;;;;;;7290254;19;20205;-78
2023/08/07 00:20:04;;;;;;;9.03;2.93;;;13.70;99.90;;;;;;7307655;19;20197;-78
2023/08/07 00:22:30;;;;;;;10.77;2.67;;;13.70;99.90;;;;;;7311793;19;20182;-78
2023/08/07 00:24:55;;;;;;;11.00;2.90;;;13.70;99.90;;;;;;7289723;19;20188;-78
2023/08/07 00:27:21;;;;;;;9.50;2.83;;;13.70;99.90;;;;;;7289238;19;20189;-77
2023/08/07 00:29:47;;;;;;;10.50;2.70;;;13.70;99.90;;;;;;7289337;19;20186;-77
2023/08/07 00:32:13;;;;;;;8.70;2.93;;;13.70;99.90;;;;;;7290040;19;20190;-77
2023/08/07 00:34:40;;;;;;;10.67;3.23;;;13.70;99.90;;;;;;7288682;19;20532;-77
2023/08/07 00:37:06;;;;;;;8.57;2.50;;;13.70;99.90;;;;;;7289264;19;20199;-78
2023/08/07 00:39:33;;;;;;;9.70;2.70;;;13.70;99.90;;;;;;7302886;19;20192;-78
2023/08/07 00:41:59;;;;;;;11.70;3.40;;;13.60;99.90;;;;;;7303321;19;20287;-78
2023/08/07 00:44:24;;;;;;;9.83;2.83;;;13.60;99.90;;;;;;7288384;19;20206;-78
2023/08/07 00:46:51;;;;;;;9.17;2.90;;;13.60;99.90;;;;;;7290188;19;20276;-78
2023/08/07 00:49:18;;;;;;;10.40;2.83;;;13.60;99.90;;;;;;7288804;19;20194;-78
2023/08/07 00:51:44;;;;;;;8.23;2.60;;;13.50;99.90;;;;;;7288862;19;20210;-78
2023/08/07 00:54:13;;;;;;;10.43;2.80;;;13.50;99.90;;;;;;7286040;19;20468;-78
2023/08/07 00:56:40;;;;;;;15.77;3.30;;;13.50;99.90;;;;;;7288205;19;20687;-78
2023/08/07 00:59:06;;;;;;;9.40;2.90;;;13.50;99.90;;;;;;7288470;19;20340;-78
2023/08/07 01:01:32;;;;;;;8.90;2.73;;;13.50;99.90;;;;;;7308409;19;20182;-78
2023/08/07 01:03:59;;;;;;;10.33;3.07;;;13.40;99.90;;;;;;7286928;19;20819;-77
2023/08/07 01:06:26;;;;;;;10.03;3.03;;;13.30;99.90;;;;;;7287037;19;20188;-78
2023/08/07 01:08:52;;;;;;;9.93;2.60;;;13.30;99.90;;;;;;7287243;19;21008;-78
2023/08/07 01:11:36;;;;;;;9.27;2.70;;;13.30;99.90;;;;;;7286958;19;20213;-78
2023/08/07 01:14:23;;;;;;;9.93;2.87;;;13.30;99.90;;;;;;7284246;19;20201;-78
2023/08/07 01:16:55;;;;;;;9.97;2.93;;;13.40;99.90;;;;;;7181583;19;2004823;-78
2023/08/07 01:19:28;;;;;;;8.83;2.90;;;13.40;99.90;;;;;;7284330;19;20193;-78
2023/08/07 01:22:14;;;;;;;11.60;2.87;;;13.30;99.90;;;;;;7288018;19;20776;-78
2023/08/07 01:24:41;;;;;;;9.40;2.93;;;13.30;99.90;;;;;;7184416;19;2004755;-78
2023/08/07 01:27:19;;;;;;;10.00;3.10;;;13.30;99.90;;;;;;7284777;19;20224;-78
2023/08/07 01:29:56;;;;;;;11.90;2.93;;;13.30;99.90;;;;;;7286998;19;20195;-78
2023/08/07 01:32:32;;;;;;;10.73;2.97;;;13.30;99.90;;;;;;7286615;19;20208;-78
2023/08/07 01:35:01;;;;;;;9.33;2.60;;;13.20;99.90;;;;;;7287507;19;20198;-78
2023/08/07 01:37:30;;;;;;;12.70;3.37;;;13.20;99.90;;;;;;7288179;19;20205;-78
2023/08/07 01:39:58;;;;;;;10.77;3.13;;;13.30;99.90;;;;;;7287338;19;20667;-78
2023/08/07 01:42:26;;;;;;;8.70;3.33;;;13.20;99.90;;;;;;7287224;19;20193;-78
2023/08/07 01:44:52;;;;;;;8.30;3.00;;;13.20;99.90;;;;;;7288140;19;20249;-78
2023/08/07 01:47:18;;;;;;;10.10;3.17;;;13.20;99.90;;;;;;7286076;19;20194;-78
2023/08/07 01:49:44;;;;;;;11.97;2.60;;;13.20;99.90;;;;;;7288579;19;20194;-78
2023/08/07 01:52:11;;;;;;;10.87;2.97;;;13.20;99.90;;;;;;7286607;19;20187;-78
2023/08/07 01:54:37;;;;;;;6.80;2.73;;;13.20;99.90;;;;;;7285865;19;20195;-78
2023/08/07 01:57:03;;;;;;;11.53;2.97;;;13.10;99.90;;;;;;7308647;19;20301;-79
2023/08/07 01:59:28;;;;;;;11.77;2.90;;;13.10;99.90;;;;;;7287323;19;20190;-78
2023/08/07 02:01:54;;;;;;;8.83;2.97;;;13.20;99.90;;;;;;7284281;19;20179;-78
2023/08/07 02:04:20;;;;;;;12.63;3.20;;;13.20;99.90;;;;;;7288075;19;20254;-78
2023/08/07 02:06:46;;;;;;;7.03;2.70;;;13.10;99.90;;;;;;7285359;19;20250;-79
2023/08/07 02:09:12;;;;;;;10.70;3.20;;;13.10;99.90;;;;;;7286330;19;20224;-78
2023/08/07 02:11:37;;;;;;;9.73;2.80;;;13.00;99.90;;;;;;7287258;19;20194;-78
2023/08/07 02:14:03;;;;;;;10.23;3.20;;;13.00;99.90;;;;;;7300047;19;20206;-78
2023/08/07 02:16:29;;;;;;;8.97;2.80;;;13.00;99.90;;;;;;7299754;19;20185;-78
2023/08/07 02:18:55;;;;;;;9.17;2.57;;;13.00;99.90;;;;;;7287883;19;20289;-78
2023/08/07 02:21:21;;;;;;;8.73;2.40;;;13.00;99.90;;;;;;7284923;19;20201;-78
2023/08/07 02:23:46;;;;;;;12.93;2.80;;;12.90;99.90;;;;;;7287218;19;20249;-78
2023/08/07 02:26:13;;;;;;;10.03;2.80;;;12.90;99.90;;;;;;7286681;19;20207;-78
2023/08/07 02:28:39;;;;;;;9.83;2.50;;;12.90;99.90;;;;;;7285971;19;20193;-78
2023/08/07 02:31:04;;;;;;;10.10;2.43;;;12.90;99.90;;;;;;7285380;19;20209;-78
2023/08/07 02:33:30;;;;;;;7.57;2.40;;;12.90;99.90;;;;;;7307645;19;20211;-79
2023/08/07 02:35:56;;;;;;;13.97;2.77;;;12.90;99.90;;;;;;7285341;19;20183;-78
2023/08/07 02:38:22;;;;;;;13.80;3.20;;;12.90;99.90;;;;;;7286043;19;20183;-78
2023/08/07 02:40:48;;;;;;;8.77;2.90;;;13.00;99.90;;;;;;7286320;19;20193;-78
2023/08/07 02:43:14;;;;;;;8.90;2.60;;;13.00;99.90;;;;;;7285213;19;20224;-79
2023/08/07 02:45:39;;;;;;;7.17;2.67;;;13.10;99.90;;;;;;7284506;19;20608;-78
2023/08/07 02:48:05;;;;;;;10.90;3.00;;;13.00;99.90;;;;;;7284502;19;20523;-78
2023/08/07 02:50:32;;;;;;;9.67;2.83;;;13.00;99.90;;;;;;7306115;19;20650;-78
2023/08/07 02:53:01;;;;;;;10.93;2.50;;;12.90;99.90;;;;;;7285823;19;20181;-79
2023/08/07 02:55:27;;;;;;;7.57;2.60;;;12.90;99.90;;;;;;7283888;19;20210;-78
2023/08/07 02:57:53;;;;;;;10.77;2.60;;;12.80;99.90;;;;;;7284951;19;20200;-78
2023/08/07 03:00:19;;;;;;;12.13;2.80;;;12.80;99.90;;;;;;7284541;19;20185;-78
2023/08/07 03:02:45;;;;;;;9.07;2.63;;;12.90;99.90;;;;;;7284496;19;20284;-79
2023/08/07 03:05:11;;;;;;;9.40;2.63;;;13.00;99.90;;;;;;7285246;19;20740;-79
2023/08/07 03:07:37;;;;;;;11.03;2.73;;;13.20;99.90;;;;;;7284414;19;20195;-79
2023/08/07 03:10:04;;;;;;;9.93;2.67;;;13.30;99.90;;;;;;7307475;19;20222;-79
2023/08/07 03:12:29;;;;;;;10.10;2.50;;;13.40;99.90;;;;;;7286227;19;20697;-79
2023/08/07 03:14:55;;;;;;;8.23;2.60;;;13.50;99.90;;;;;;7283813;19;20380;-78
2023/08/07 03:17:21;;;;;;;14.20;2.50;;;13.60;99.90;;;;;;7285796;19;20191;-78
2023/08/07 03:19:47;;;;;;;9.53;2.57;;;13.60;99.90;;;;;;7284246;19;20194;-79
2023/08/07 03:22:13;;;;;;;12.10;2.60;;;13.60;99.90;;;;;;7284242;19;20195;-79
2023/08/07 03:24:38;;;;;;;8.47;2.70;;;13.70;99.90;;;;;;7284088;19;20652;-79
2023/08/07 03:27:05;;;;;;;10.80;2.60;;;13.80;99.90;;;;;;7283598;19;20183;-78
2023/08/07 03:29:31;;;;;;;8.83;2.50;;;13.80;99.90;;;;;;7304737;19;20202;-79
2023/08/07 03:31:57;;;;;;;6.93;2.30;;;13.80;99.90;;;;;;7285633;19;20183;-78
2023/08/07 03:34:23;;;;;;;10.23;3.03;;;13.80;99.90;;;;;;7284385;19;20202;-79
2023/08/07 03:36:49;;;;;;;12.43;3.17;;;13.80;99.90;;;;;;7284225;19;20187;-79
2023/08/07 03:39:15;;;;;;;8.77;2.80;;;13.70;99.90;;;;;;7283723;19;20197;-79
2023/08/07 03:41:41;;;;;;;10.73;2.27;;;13.70;99.90;;;;;;7283700;19;20542;-78
2023/08/07 03:44:09;;;;;;;9.80;2.70;;;13.60;99.90;;;;;;7283001;19;20201;-79
2023/08/07 03:46:35;;;;;;;8.83;2.80;;;13.50;99.90;;;;;;7282673;19;20190;-78
2023/08/07 03:49:01;;;;;;;11.37;2.53;;;13.40;99.90;;;;;;7305812;19;20625;-79
2023/08/07 03:51:29;;;;;;;10.87;3.03;;;13.30;99.90;;;;;;7283247;19;20195;-79
2023/08/07 03:53:55;;;;;;;10.87;3.00;;;13.30;99.90;;;;;;7281685;19;20743;-79
2023/08/07 03:56:21;;;;;;;13.97;2.97;;;13.30;99.90;;;;;;7283016;19;20210;-79
2023/08/07 03:58:49;;;;;;;8.47;2.80;;;13.30;99.90;;;;;;7282602;19;20194;-79
2023/08/07 04:01:17;;;;;;;9.77;2.90;;;13.30;99.90;;;;;;7283014;19;20190;-79
2023/08/07 04:03:43;;;;;;;9.47;2.73;;;13.20;99.90;;;;;;7282736;19;20190;-78
2023/08/07 04:06:12;;;;;;;7.50;2.70;;;13.20;99.90;;;;;;7280894;19;20210;-78
2023/08/07 04:08:38;;;;;;;12.00;2.93;;;13.20;99.90;;;;;;7282164;19;20195;-78
2023/08/07 04:11:04;;;;;;;10.57;2.80;;;13.20;99.90;;;;;;7296598;19;20704;-78
2023/08/07 04:13:32;;;;;;;7.67;2.87;;;13.20;99.90;;;;;;7304052;19;20276;-78
2023/08/07 04:15:58;;;;;;;9.50;2.47;;;13.20;99.90;;;;;;7283368;19;20220;-78
2023/08/07 04:18:24;;;;;;;11.17;3.00;;;13.10;99.90;;;;;;7282070;19;20180;-79
2023/08/07 04:20:54;;;;;;;10.83;2.90;;;13.10;99.90;;;;;;7283006;19;20189;-78
2023/08/07 04:23:21;;;;;;;12.03;3.27;;;13.10;99.90;;;;;;7282773;19;20193;-78
2023/08/07 04:25:51;;;;;;;10.70;3.00;;;13.20;99.90;;;;;;7283158;19;20199;-78
2023/08/07 04:28:17;;;;;;;8.43;2.87;;;13.20;99.90;;;;;;7283365;19;20215;-79
2023/08/07 04:30:44;;;;;;;10.00;3.00;;;13.20;99.90;;;;;;7282993;19;20630;-78
2023/08/07 04:33:10;;;;;;;11.53;3.03;;;13.20;99.90;;;;;;7280247;19;20187;-78
2023/08/07 04:35:36;;;;;;;13.27;3.17;;;13.20;99.90;;;;;;7281771;19;20191;-79
2023/08/07 04:38:02;;;;;;;5.63;2.43;;;13.20;99.90;;;;;;7305473;19;20187;-78
2023/08/07 04:40:29;;;;;;;10.00;3.07;;;13.20;99.90;;;;;;7282600;19;20584;-79
2023/08/07 04:42:55;;;;;;;10.80;3.07;;;13.30;99.90;;;;;;7281355;19;20270;-78
2023/08/07 04:45:21;;;;;;;10.43;3.10;;;13.30;99.90;;;;;;7282103;19;20198;-78
2023/08/07 04:47:46;;;;;;;11.87;3.07;;;13.30;99.90;;;;;;7281154;19;20200;-79
2023/08/07 04:50:12;;;;;;;11.77;3.00;;;13.30;99.90;;;;;;7282748;19;20209;-78
2023/08/07 04:52:38;;;;;;;11.40;2.97;;;13.40;99.90;;;;;;7282249;19;20677;-78
2023/08/07 04:55:05;;;;;;;10.57;2.97;;;13.50;99.90;;;;;;7300105;19;20188;-79
2023/08/07 04:57:30;;;;;;;9.57;3.13;;;13.50;99.90;;;;;;7310494;19;20181;-78
2023/08/07 04:59:56;;;;;;;10.17;3.43;;;13.80;99.90;;;;;;7288089;19;20198;-77
2023/08/07 05:02:22;;;;;;;10.87;2.97;;;14.30;99.90;;;;;;7287237;19;20187;-79
2023/08/07 05:04:48;;;;;;;9.67;2.47;;;15.20;99.90;;;;;;7289658;19;20195;-79
2023/08/07 05:07:14;;;;;;;8.33;2.73;;;16.40;99.90;;;;;;7287529;19;20189;-79
2023/08/07 05:09:40;;;;;;;9.63;2.67;;;17.20;99.90;;;;;;7286093;19;20682;-79
2023/08/07 05:12:07;;;;;;;7.87;2.17;;;18.20;99.90;;;;;;7284387;19;20190;-81
2023/08/07 05:14:32;;;;;;;9.80;2.37;;;19.20;99.90;;;;;;7310968;19;20191;-79
2023/08/07 05:16:59;;;;;;;8.87;2.97;;;19.50;99.90;;;;;;7288923;19;20305;-79
2023/08/07 05:19:25;;;;;;;7.97;2.50;;;19.80;99.90;;;;;;7289224;19;20227;-79
2023/08/07 05:21:51;;;;;;;6.87;2.50;;;20.40;99.90;;;;;;7287063;19;20196;-78
2023/08/07 05:24:18;;;;;;;12.87;2.00;;;21.00;99.90;;;;;;7287774;19;20276;-79
2023/08/07 05:26:44;;;;;;;7.67;2.40;;;21.50;99.90;;;;;;7287435;19;20191;-79
2023/08/07 05:29:10;;;;;;;9.87;2.40;;;21.00;99.90;;;;;;7288081;19;20203;-79
2023/08/07 05:31:36;;;;;;;12.77;2.50;;;21.40;99.90;;;;;;7288773;19;20705;-78
2023/08/07 05:34:02;;;;;;;11.60;2.30;;;22.20;99.90;;;;;;7310200;19;20209;-78
2023/08/07 05:36:29;;;;;;;10.90;2.47;;;22.80;99.90;;;;;;7286684;19;20187;-79
2023/08/07 05:38:55;;;;;;;8.53;2.00;;;23.60;99.90;;;;;;7286657;19;20713;-79
2023/08/07 05:41:21;;;;;;;9.63;2.33;;;24.00;99.90;;;;;;7285133;19;20195;-79
2023/08/07 05:43:47;;;;;;;6.10;2.00;;;23.90;99.90;;;;;;7287242;19;20193;-79
2023/08/07 05:46:12;;;;;;;6.53;2.13;;;24.60;99.90;;;;;;7286689;19;20179;-78
2023/08/07 05:48:38;;;;;;;10.23;2.10;;;24.80;99.90;;;;;;7287777;19;20244;-79
2023/08/07 05:51:04;;;;;;;7.30;2.07;;;25.30;99.90;;;;;;7301648;19;20186;-78
2023/08/07 05:53:30;;;;;;;10.73;2.17;;;25.80;99.90;;;;;;7302724;19;20183;-79
2023/08/07 05:55:55;;;;;;;7.97;2.13;;;26.20;99.90;;;;;;7286925;19;20194;-78
2023/08/07 05:58:22;;;;;;;10.40;2.50;;;26.00;99.90;;;;;;7287545;19;20192;-79
2023/08/07 06:00:47;;;;;;;8.67;2.27;;;26.30;99.90;;;;;;7286047;19;20699;-79
2023/08/07 06:03:13;;;;;;;10.33;2.53;;;26.50;99.90;;;;;;7286244;19;20195;-79
2023/08/07 06:05:39;;;;;;;10.27;2.67;;;26.60;99.90;;;;;;7284639;19;20655;-79
2023/08/07 06:08:05;;;;;;;7.47;2.37;;;26.20;99.90;;;;;;7293489;19;20200;-78
2023/08/07 06:10:30;;;;;;;10.37;2.40;;;26.00;99.90;;;;;;7309169;19;20215;-77
2023/08/07 06:12:56;;;;;;;9.63;2.30;;;26.10;99.90;;;;;;7285803;19;20194;-77
2023/08/07 06:15:22;;;;;;;8.70;2.63;;;26.30;99.90;;;;;;7285486;19;20209;-77
2023/08/07 06:17:48;;;;;;;9.10;2.70;;;26.60;99.90;;;;;;7287839;19;20201;-78
2023/08/07 06:20:15;;;;;;;6.13;1.97;;;26.40;99.90;;;;;;7287927;19;20192;-77
2023/08/07 06:22:41;;;;;;;9.00;2.40;;;26.30;99.90;;;;;;7295702;19;20192;-78
2023/08/07 06:25:08;;;;;;;8.37;2.37;;;26.40;99.90;;;;;;7289400;19;20197;-78
2023/08/07 06:27:34;;;;;;;10.07;2.30;;;26.30;99.90;;;;;;7307571;19;20185;-78
2023/08/07 06:30:00;;;;;;;9.60;2.40;;;26.50;99.90;;;;;;7303507;19;21044;-77
2023/08/07 06:32:26;;;;;;;9.17;2.90;;;26.50;99.90;;;;;;7288043;19;20224;-77
2023/08/07 06:34:52;;;;;;;6.13;2.40;;;26.80;99.90;;;;;;7285422;19;20197;-77
2023/08/07 06:37:18;;;;;;;9.37;2.60;;;26.10;99.90;;;;;;7282310;19;20200;-76
2023/08/07 06:39:46;;;;;;;8.37;2.70;;;25.70;99.90;;;;;;7284494;19;20189;-77
2023/08/07 06:42:12;;;;;;;8.33;2.57;;;25.60;99.90;;;;;;7284543;19;20213;-79
2023/08/07 06:44:41;;;;;;;8.27;2.50;;;25.90;99.90;;;;;;7285554;19;20191;-79
2023/08/07 06:47:07;;;;;;;7.70;2.50;;;26.60;99.90;;;;;;7285753;19;20193;-79
2023/08/07 06:49:33;;;;;;;10.00;2.60;;;26.80;99.90;;;;;;7305243;19;20274;-79
2023/08/07 06:51:58;;;;;;;9.73;2.25;;;27.20;99.90;;;;;;7286272;19;20189;-78
2023/08/07 06:54:24;;;;;;;8.23;2.50;;;27.30;99.90;;;;;;7283035;19;20185;-78
2023/08/07 06:56:50;;;;;;;10.90;2.47;;;27.00;99.90;;;;;;7283921;19;20617;-78
2023/08/07 06:59:16;;;;;;;6.28;2.08;;;26.60;99.90;;;;;;7282747;19;20556;-78
2023/08/07 07:01:41;;;;;;;9.90;2.20;;;26.80;99.90;;;;;;7284280;19;20222;-78
2023/08/07 07:04:07;;;;;;;7.27;2.50;;;26.60;99.90;;;;;;7283482;19;20201;-77
2023/08/07 07:06:33;;;;;;;7.47;2.53;;;25.60;99.90;;;;;;7307115;19;20204;-78
2023/08/07 07:08:59;;;;;;;7.93;2.07;;;25.60;99.90;;;;;;7284059;19;20748;-78
2023/08/07 07:11:25;;;;;;;9.60;2.50;;;26.90;99.90;;;;;;7285599;19;20915;-78
2023/08/07 07:13:52;;;;;;;8.50;2.57;;;27.00;99.90;;;;;;7283412;19;20189;-78
2023/08/07 07:16:21;;;;;;;12.13;2.50;;;27.80;99.90;;;;;;7282624;19;20193;-78
2023/08/07 07:18:47;;;;;;;8.20;2.40;;;28.20;99.20;;;;;;7283982;19;20209;-78
2023/08/07 07:21:13;;;;;;;10.30;2.40;;;28.30;99.40;;;;;;7283384;19;20204;-77
2023/08/07 07:23:39;;;;;;;11.35;3.42;;;27.60;99.90;;;;;;7282738;19;20189;-77
2023/08/07 07:26:05;;;;;;;14.63;3.28;;;28.00;99.30;;;;;;7291155;19;20208;-78
2023/08/07 07:28:30;;;;;;;20.83;3.70;;;27.80;99.90;;;;;;7302792;19;20648;-77
2023/08/07 07:30:56;;;;;;;10.75;2.70;;;27.80;99.30;;;;;;7281093;19;20205;-77
2023/08/07 07:33:22;;;;;;;51.63;5.80;;;27.80;99.90;;;;;;7282817;19;20211;-77
2023/08/07 07:35:48;;;;;;;55.53;7.65;;;27.70;99.90;;;;;;7282638;19;20193;-77
2023/08/07 07:38:15;;;;;;;8.17;2.47;;;28.20;99.20;;;;;;7282329;19;20192;-78
2023/08/07 07:40:41;;;;;;;8.13;2.10;;;27.60;99.90;;;;;;7281295;19;20288;-77
2023/08/07 07:43:07;;;;;;;9.93;2.30;;;27.70;99.90;;;;;;7280765;19;20185;-78
2023/08/07 07:45:35;;;;;;;8.63;2.30;;;28.90;97.90;;;;;;7304078;19;20531;-78
2023/08/07 07:48:02;;;;;;;7.30;2.10;;;28.80;96.60;;;;;;7282273;19;20188;-78
2023/08/07 07:50:28;;;;;;;6.65;2.17;;;29.20;95.50;;;;;;7282948;19;20239;-78
2023/08/07 07:52:54;;;;;;;7.45;1.90;;;30.50;93.00;;;;;;7280111;19;20713;-78
2023/08/07 07:55:20;;;;;;;9.32;2.08;;;30.40;92.60;;;;;;7281775;19;20189;-78
2023/08/07 07:57:45;;;;;;;7.13;1.80;;;30.60;90.00;;;;;;7280326;19;20649;-78
2023/08/07 08:00:13;;;;;;;5.80;1.70;;;30.10;89.80;;;;;;7281265;19;20189;-78
2023/08/07 08:02:40;;;;;;;5.85;1.92;;;28.70;91.60;;;;;;7278266;19;20196;-78
2023/08/07 08:05:07;;;;;;;8.55;1.90;;;28.90;93.30;;;;;;7278258;19;20193;-78
2023/08/07 08:07:34;;;;;;;8.05;1.80;;;29.60;92.30;;;;;;7299956;19;20280;-78
2023/08/07 08:10:00;;;;;;;5.68;1.88;;;30.00;88.10;;;;;;7279409;19;20197;-78
2023/08/07 08:12:26;;;;;;;7.70;1.80;;;29.60;86.40;;;;;;7282009;19;20193;-78
2023/08/07 08:14:52;;;;;;;8.30;1.70;;;29.20;87.90;;;;;;7281854;19;20203;-78
2023/08/07 08:17:18;;;;;;;5.88;1.40;;;30.70;86.20;;;;;;7281377;19;20188;-79
2023/08/07 08:19:44;;;;;;;6.75;1.60;;;31.80;83.00;;;;;;7279771;19;20196;-78
2023/08/07 08:22:09;;;;;;;5.80;1.60;;;32.50;78.60;;;;;;7281180;19;20766;-78
2023/08/07 08:24:35;;;;;;;6.05;1.77;;;30.70;79.70;;;;;;7288527;19;20189;-79
2023/08/07 08:27:01;;;;;;;7.20;1.90;;;29.50;81.20;;;;;;7303270;19;20308;-78
2023/08/07 08:29:28;;;;;;;7.30;1.95;;;30.10;81.40;;;;;;7286081;19;20668;-79
2023/08/07 08:31:55;;;;;;;5.68;1.83;;;30.30;80.90;;;;;;7288085;19;20284;-78
2023/08/07 08:34:21;;;;;;;8.43;2.20;;;28.90;81.70;;;;;;7286253;19;20548;-79
2023/08/07 08:36:47;;;;;;;6.25;1.75;;;27.60;92.00;;;;;;7287054;19;20518;-79
2023/08/07 08:39:13;;;;;;;5.25;1.90;;;27.60;88.60;;;;;;7288596;19;20188;-78
2023/08/07 08:41:41;;;;;;;8.88;1.80;;;28.10;88.80;;;;;;7288626;19;20201;-78
2023/08/07 08:44:09;;;;;;;5.03;1.67;;;26.80;90.60;;;;;;7289536;19;20189;-78
2023/08/07 08:46:36;;;;;;;6.10;1.70;;;26.40;94.70;;;;;;7300536;19;20675;-78
2023/08/07 08:49:03;;;;;;;5.93;2.00;;;27.00;94.50;;;;;;7309567;19;20189;-78
2023/08/07 08:51:30;;;;;;;7.77;1.73;;;28.20;90.10;;;;;;7288935;19;20280;-78
2023/08/07 08:53:56;;;;;;;8.20;2.00;;;29.20;89.40;;;;;;7286764;19;20186;-78
2023/08/07 08:56:23;;;;;;;7.00;1.88;;;29.10;85.00;;;;;;7287460;19;20193;-77
2023/08/07 08:58:52;;;;;;;5.93;1.67;;;28.70;87.10;;;;;;7287017;19;20196;-79
2023/08/07 09:01:18;;;;;;;4.57;1.67;;;30.00;85.80;;;;;;7287081;19;20193;-78
2023/08/07 09:03:47;;;;;;;6.07;1.95;;;30.50;83.30;;;;;;7287867;19;20201;-78
2023/08/07 09:06:13;;;;;;;5.47;1.70;;;29.40;82.30;;;;;;7288814;19;20220;-78
2023/08/07 09:08:43;;;;;;;5.80;1.73;;;27.70;90.00;;;;;;7286847;19;20659;-78
2023/08/07 09:11:12;;;;;;;6.63;1.83;;;26.90;91.50;;;;;;7286557;19;20202;-78
2023/08/07 09:13:40;;;;;;;5.53;1.70;;;27.10;91.90;;;;;;7286705;19;20700;-78
2023/08/07 09:16:08;;;;;;;5.17;1.67;;;27.90;91.10;;;;;;7288528;19;20232;-77
2023/08/07 09:18:34;;;;;;;6.20;1.60;;;27.00;90.70;;;;;;7304707;19;20188;-78
2023/08/07 09:21:01;;;;;;;3.87;1.50;;;27.00;93.20;;;;;;7298756;19;20184;-78
2023/08/07 09:23:26;;;;;;;5.33;1.60;;;26.90;92.30;;;;;;7287488;19;20196;-78
2023/08/07 09:26:04;;;;;;;5.07;1.80;;;26.50;92.20;;;;;;7286580;19;20184;-77
2023/08/07 09:28:31;;;;;;;6.00;1.73;;;25.80;93.10;;;;;;7286899;19;20541;-78
2023/08/07 09:31:04;;;;;;;4.43;1.70;;;24.70;95.10;;;;;;7286669;19;20274;-78
2023/08/07 09:33:30;;;;;;;5.87;1.70;;;24.00;98.20;;;;;;7285800;19;20193;-78
2023/08/07 09:36:02;;;;;;;5.47;1.67;;;24.60;99.90;;;;;;7287560;19;20223;-79
2023/08/07 09:38:30;;;;;;;7.43;1.60;;;26.30;95.10;;;;;;7287383;19;20197;-79
2023/08/07 09:41:05;;;;;;;5.32;1.73;;;29.60;92.50;;;;;;7285252;19;20174;-79
2023/08/07 09:43:35;;;;;;;6.80;1.73;;;29.30;85.70;;;;;;7287218;19;21064;-78
2023/08/07 09:46:07;;;;;;;8.60;1.73;;;28.50;82.90;;;;;;7287696;19;20180;-78
2023/08/07 09:48:40;;;;;;;6.40;1.87;;;27.10;87.40;;;;;;7286164;19;20188;-78
2023/08/07 09:51:06;;;;;;;8.67;1.90;;;25.40;93.50;;;;;;7269801;19;20189;-78
2023/08/07 09:53:31;;;;;;;6.73;1.80;;;23.90;99.90;;;;;;7307690;19;20199;-79
2023/08/07 09:55:58;;;;;;;6.20;2.17;;;23.50;99.90;;;;;;7285619;19;20188;-78
2023/08/07 09:58:24;;;;;;;9.20;2.00;;;23.00;99.90;;;;;;7286482;19;20186;-79
2023/08/07 10:00:53;;;;;;;7.23;2.10;;;23.00;99.90;;;;;;7285242;19;20181;-79
2023/08/07 10:03:19;;;;;;;6.67;1.80;;;25.50;99.90;;;;;;7284517;19;20216;-78
2023/08/07 10:05:46;;;;;;;4.77;1.70;;;26.90;97.30;;;;;;7285452;19;20261;-78
2023/08/07 10:08:12;;;;;;;5.23;1.70;;;27.80;96.10;;;;;;7285285;19;20692;-79
2023/08/07 10:10:40;;;;;;;4.67;1.53;;;28.00;90.50;;;;;;7286741;19;20192;-78
2023/08/07 10:13:07;;;;;;;4.43;1.70;;;28.70;87.20;;;;;;7287288;19;20189;-79
2023/08/07 10:15:34;;;;;;;5.53;1.40;;;29.60;87.00;;;;;;7308577;19;20201;-78
2023/08/07 10:18:00;;;;;;;2.42;1.13;;;30.30;80.60;;;;;;7285647;19;20177;-77
2023/08/07 10:20:28;;;;;;;3.72;1.40;;;30.00;76.50;;;;;;7283584;19;20182;-77
2023/08/07 10:22:59;;;;;;;4.15;1.42;;;29.30;81.00;;;;;;7283484;19;20185;-77
2023/08/07 10:25:27;;;;;;;6.95;1.80;;;28.10;82.30;;;;;;7282903;19;20908;-77
2023/08/07 10:27:55;;;;;;;3.83;1.80;;;27.00;86.50;;;;;;7283264;19;20196;-77
2023/08/07 10:30:23;;;;;;;8.80;1.57;;;25.10;92.40;;;;;;7284285;19;20874;-77
2023/08/07 10:32:50;;;;;;;2.93;1.33;;;24.40;99.30;;;;;;7282356;19;20189;-77
2023/08/07 10:35:32;;;;;;;5.00;1.70;;;24.20;99.90;;;;;;7283936;19;20185;-77
2023/08/07 10:38:11;;;;;;;4.73;1.73;;;24.20;99.90;;;;;;7282577;19;20673;-77
2023/08/07 10:41:10;;;;;;;5.53;1.60;;;24.50;99.90;;;;;;7262061;19;20195;-78
2023/08/07 10:43:40;;;;;;;4.30;1.80;;;25.70;99.90;;;;;;7267271;19;20193;-78
2023/08/07 10:46:19;;;;;;;3.07;1.57;;;27.90;95.50;;;;;;7288898;19;20207;-78
2023/08/07 10:48:49;;;;;;;2.83;1.40;;;29.20;89.60;;;;;;7282749;19;20184;-78
2023/08/07 10:51:17;;;;;;;3.83;1.37;;;28.00;87.00;;;;;;7280495;19;20635;-78
2023/08/07 10:53:45;;;;;;;3.05;1.50;;;27.70;93.10;;;;;;7282129;19;20214;-78
2023/08/07 10:56:16;;;;;;;5.65;1.58;;;28.40;86.50;;;;;;7283309;19;20188;-78
2023/08/07 10:58:42;;;;;;;4.30;1.63;;;27.20;90.10;;;;;;7283202;19;20911;-78
2023/08/07 11:01:34;;;;;;;2.75;1.20;;;27.90;90.90;;;;;;7284544;19;20185;-78
2023/08/07 11:04:06;;;;;;;5.55;1.55;;;29.40;83.30;;;;;;7283296;19;20185;-78
2023/08/07 11:06:34;;;;;;;4.75;1.30;;;29.90;83.10;;;;;;7284647;19;20669;-78
2023/08/07 11:09:00;;;;;;;3.97;1.38;;;30.00;83.30;;;;;;7283122;19;20282;-78
2023/08/07 11:11:40;;;;;;;3.15;1.25;;;30.70;81.90;;;;;;7285377;19;20543;-78
2023/08/07 11:14:14;;;;;;;3.28;1.27;;;30.40;76.00;;;;;;7265154;19;20193;-77
2023/08/07 11:16:42;;;;;;;3.75;1.55;;;29.70;79.20;;;;;;7282181;19;20256;-78
2023/08/07 11:19:09;;;;;;;5.30;1.30;;;29.70;81.30;;;;;;7282929;19;20192;-78
2023/08/07 11:21:35;;;;;;;4.50;1.63;;;31.10;81.70;;;;;;7305030;19;20202;-79
2023/08/07 11:24:01;;;;;;;4.13;1.33;;;31.20;79.40;;;;;;7282485;19;20188;-79
2023/08/07 11:26:28;;;;;;;2.75;1.38;;;31.20;74.00;;;;;;7282211;19;20264;-79
2023/08/07 11:28:56;;;;;;;3.38;1.20;;;30.70;74.00;;;;;;7282490;19;20213;-78
2023/08/07 11:31:24;;;;;;;2.75;1.30;;;31.40;73.40;;;;;;7280853;19;20272;-87
2023/08/07 11:33:57;;;;;;;5.05;1.45;;;31.20;73.80;;;;;;7278857;19;20177;-77
2023/08/07 11:36:24;;;;;;;3.65;1.20;;;30.90;73.30;;;;;;7278625;19;20193;-77
2023/08/07 11:38:50;;;;;;;3.40;1.30;;;30.80;75.20;;;;;;7281032;19;20189;-77
2023/08/07 11:41:17;;;;;;;2.25;1.25;;;31.10;71.80;;;;;;7279090;19;20193;-77
2023/08/07 11:43:43;;;;;;;3.08;1.15;;;30.90;74.00;;;;;;7280652;19;20189;-77
2023/08/07 11:46:12;;;;;;;2.90;1.00;;;29.70;76.10;;;;;;7280239;19;20193;-77
2023/08/07 11:48:40;;;;;;;2.67;1.25;;;28.60;75.40;;;;;;7279964;19;20181;-77
2023/08/07 11:51:07;;;;;;;2.97;1.20;;;27.90;80.80;;;;;;7292236;19;20669;-78
2023/08/07 11:53:37;;;;;;;1.98;1.00;;;27.60;83.90;;;;;;7303798;19;20181;-78
2023/08/07 11:56:11;;;;;;;2.13;1.00;;;28.30;84.00;;;;;;7283011;19;20189;-78
2023/08/07 11:58:38;;;;;;;4.45;1.30;;;29.30;78.50;;;;;;7259400;19;20191;-78
2023/08/07 12:01:15;;;;;;;4.13;1.02;;;30.60;79.60;;;;;;7301851;19;20189;-78
2023/08/07 12:03:57;;;;;;;2.90;0.95;;;31.60;72.50;;;;;;7182903;19;2005616;-77
2023/08/07 12:06:24;;;;;;;2.92;1.13;;;31.60;71.20;;;;;;7285096;19;20203;-77
2023/08/07 12:08:54;;;;;;;4.05;1.02;;;29.30;72.30;;;;;;7287726;19;20188;-77
2023/08/07 12:11:23;;;;;;;2.45;0.90;;;28.30;76.90;;;;;;7287328;19;20192;-77
2023/08/07 12:13:49;;;;;;;4.35;1.13;;;28.10;79.10;;;;;;7286107;19;20192;-78
2023/08/07 12:16:16;;;;;;;4.57;1.20;;;28.40;79.70;;;;;;7288192;19;20192;-78
2023/08/07 12:18:47;;;;;;;2.28;1.00;;;28.60;79.00;;;;;;7288369;19;20188;-78
2023/08/07 12:21:19;;;;;;;3.05;1.00;;;27.60;78.70;;;;;;7288156;19;20659;-78
2023/08/07 12:23:47;;;;;;;3.50;1.20;;;25.90;83.00;;;;;;7288999;19;20237;-77
2023/08/07 12:26:13;;;;;;;5.17;1.20;;;24.70;91.40;;;;;;7288468;19;20193;-78
2023/08/07 12:28:39;;;;;;;3.10;1.00;;;23.90;95.60;;;;;;7286651;19;20682;-78
2023/08/07 12:31:06;;;;;;;5.40;1.17;;;23.90;99.60;;;;;;7310267;19;20252;-77
2023/08/07 12:33:32;;;;;;;3.00;1.20;;;23.70;99.90;;;;;;7311007;19;20608;-77
2023/08/07 12:35:59;;;;;;;3.37;1.20;;;24.40;99.90;;;;;;7286301;19;20185;-77
2023/08/07 12:38:25;;;;;;;2.73;1.10;;;24.90;99.90;;;;;;7288609;19;20337;-77
2023/08/07 12:40:51;;;;;;;4.27;1.00;;;25.30;98.30;;;;;;7287935;19;20193;-78
2023/08/07 12:43:17;;;;;;;2.27;0.90;;;25.20;96.10;;;;;;7287199;19;20192;-78